Time,TemperatureF,DewpointF,PressureIn,WindDirection,WindDirectionDegrees,WindSpeedMPH,WindSpeedGustMPH,Humidity,HourlyPrecipIn,Conditions,Clouds,dailyrainin,SoftwareType,DateUTC
2013-04-22 00:02:00,41.4,33.4,30.67,SSE,158,5.0,5.0,73,0.00,,,0.00,meteohub,2013-04-22 04:02:00,
2013-04-22 00:03:00,41.4,33.4,30.67,SSE,158,5.0,5.0,73,0.00,,,0.00,meteohub,2013-04-22 04:03:00,
2013-04-22 00:04:00,41.2,33.3,30.67,SSE,158,4.0,5.0,73,0.00,,,0.00,meteohub,2013-04-22 04:04:00,
2013-04-22 00:05:00,41.2,33.3,30.67,SSE,158,4.0,5.0,73,0.00,,,0.00,meteohub,2013-04-22 04:05:00,
2013-04-22 00:06:00,41.2,33.3,30.67,SSE,158,3.0,4.0,73,0.00,,,0.00,meteohub,2013-04-22 04:06:00,
2013-04-22 00:11:00,41.2,33.3,30.67,SSE,158,3.0,5.0,73,0.00,,,0.00,meteohub,2013-04-22 04:11:00,
2013-04-22 00:16:00,41.4,33.6,30.67,SE,135,4.0,5.0,74,0.00,,,0.00,meteohub,2013-04-22 04:16:00,
2013-04-22 00:21:00,41.4,33.6,30.67,SE,135,3.0,4.0,74,0.00,,,0.00,meteohub,2013-04-22 04:21:00,
2013-04-22 00:26:00,41.4,33.6,30.68,SE,135,4.0,4.0,74,0.00,,,0.00,meteohub,2013-04-22 04:26:00,
2013-04-22 00:31:00,41.5,33.8,30.68,SE,135,6.0,6.0,74,0.00,,,0.00,meteohub,2013-04-22 04:31:00,
2013-04-22 00:37:00,41.4,34.0,30.68,ESE,113,6.0,6.0,75,0.00,,,0.00,meteohub,2013-04-22 04:37:00,
2013-04-22 00:42:00,41.2,33.8,30.67,ESE,113,5.0,6.0,75,0.00,,,0.00,meteohub,2013-04-22 04:42:00,
2013-04-22 00:47:00,41.2,33.8,30.67,ESE,113,5.0,6.0,75,0.00,,,0.00,meteohub,2013-04-22 04:47:00,
2013-04-22 00:52:00,41.0,34.0,30.67,SE,135,6.0,7.0,76,0.00,,,0.00,meteohub,2013-04-22 04:52:00,
2013-04-22 00:57:00,41.2,34.2,30.67,SE,135,7.0,7.0,76,0.00,,,0.00,meteohub,2013-04-22 04:57:00,
2013-04-22 01:02:00,40.8,33.8,30.67,SE,135,4.0,7.0,76,0.00,,,0.00,meteohub,2013-04-22 05:02:00,
2013-04-22 01:07:00,40.8,33.8,30.67,SE,135,5.0,7.0,76,0.00,,,0.00,meteohub,2013-04-22 05:07:00,
2013-04-22 01:12:00,40.6,34.0,30.67,SSE,158,2.0,7.0,77,0.00,,,0.00,meteohub,2013-04-22 05:12:00,
2013-04-22 01:17:00,40.8,34.2,30.67,ESE,113,4.0,5.0,77,0.00,,,0.00,meteohub,2013-04-22 05:17:00,
2013-04-22 01:22:00,40.8,34.5,30.67,ESE,113,5.0,6.0,78,0.00,,,0.00,meteohub,2013-04-22 05:22:00,
2013-04-22 01:27:00,40.6,34.3,30.67,SE,135,7.0,7.0,78,0.00,,,0.00,meteohub,2013-04-22 05:27:00,
2013-04-22 01:32:00,40.6,34.7,30.67,ENE,68,3.0,7.0,79,0.00,,,0.00,meteohub,2013-04-22 05:32:00,
2013-04-22 01:37:00,40.5,34.5,30.67,SSE,158,4.0,7.0,79,0.00,,,0.00,meteohub,2013-04-22 05:37:00,
2013-04-22 01:42:00,40.5,34.5,30.67,East,90,5.0,7.0,79,0.00,,,0.00,meteohub,2013-04-22 05:42:00,
2013-04-22 01:47:00,40.5,34.5,30.67,ESE,113,4.0,6.0,79,0.00,,,0.00,meteohub,2013-04-22 05:47:00,
2013-04-22 01:52:00,40.3,34.3,30.67,ENE,68,4.0,5.0,79,0.00,,,0.00,meteohub,2013-04-22 05:52:00,
2013-04-22 01:57:00,40.1,34.2,30.67,ESE,113,4.0,5.0,79,0.00,,,0.00,meteohub,2013-04-22 05:57:00,
2013-04-22 02:02:00,39.9,34.0,30.67,ESE,113,4.0,5.0,79,0.00,,,0.00,meteohub,2013-04-22 06:02:00,
2013-04-22 02:07:00,40.1,34.5,30.68,ESE,113,4.0,4.0,80,0.00,,,0.00,meteohub,2013-04-22 06:07:00,
2013-04-22 02:12:00,39.9,34.3,30.68,SE,135,3.0,4.0,80,0.00,,,0.00,meteohub,2013-04-22 06:12:00,
2013-04-22 02:17:00,39.7,34.2,30.68,SE,135,4.0,5.0,80,0.00,,,0.00,meteohub,2013-04-22 06:17:00,
2013-04-22 02:22:00,39.7,34.2,30.67,ENE,68,4.0,5.0,80,0.00,,,0.00,meteohub,2013-04-22 06:22:00,
2013-04-22 02:27:00,39.7,34.2,30.67,ENE,68,4.0,5.0,80,0.00,,,0.00,meteohub,2013-04-22 06:27:00,
2013-04-22 02:32:00,39.7,34.2,30.67,ESE,113,3.0,5.0,80,0.00,,,0.00,meteohub,2013-04-22 06:32:00,
2013-04-22 02:37:00,39.7,34.2,30.67,ESE,113,4.0,5.0,80,0.00,,,0.00,meteohub,2013-04-22 06:37:00,
2013-04-22 02:42:00,39.7,34.2,30.67,East,90,4.0,5.0,80,0.00,,,0.00,meteohub,2013-04-22 06:42:00,
2013-04-22 02:47:00,39.6,34.0,30.67,ENE,68,4.0,5.0,80,0.00,,,0.00,meteohub,2013-04-22 06:47:00,
2013-04-22 02:52:00,39.6,34.0,30.67,ESE,113,6.0,6.0,80,0.00,,,0.00,meteohub,2013-04-22 06:52:00,
2013-04-22 02:57:00,39.7,34.2,30.67,East,90,5.0,6.0,80,0.00,,,0.00,meteohub,2013-04-22 06:57:00,
2013-04-22 03:02:00,39.7,34.2,30.67,ESE,113,3.0,7.0,80,0.00,,,0.00,meteohub,2013-04-22 07:02:00,
2013-04-22 03:07:00,39.7,34.2,30.67,ENE,68,4.0,7.0,80,0.00,,,0.00,meteohub,2013-04-22 07:07:00,
2013-04-22 03:12:00,39.7,34.2,30.67,ENE,68,4.0,5.0,80,0.00,,,0.00,meteohub,2013-04-22 07:12:00,
2013-04-22 03:17:00,39.7,34.2,30.67,ENE,68,6.0,6.0,80,0.00,,,0.00,meteohub,2013-04-22 07:17:00,
2013-04-22 03:22:00,39.9,34.3,30.66,East,90,7.0,7.0,80,0.00,,,0.00,meteohub,2013-04-22 07:22:00,
2013-04-22 03:27:00,39.9,34.3,30.66,ENE,68,5.0,7.0,80,0.00,,,0.00,meteohub,2013-04-22 07:27:00,
2013-04-22 03:32:00,39.9,34.3,30.66,ENE,68,4.0,7.0,80,0.00,,,0.00,meteohub,2013-04-22 07:32:00,
2013-04-22 03:37:00,39.9,34.3,30.66,ENE,68,7.0,7.0,80,0.00,,,0.00,meteohub,2013-04-22 07:37:00,
2013-04-22 03:42:00,39.7,34.2,30.66,ENE,68,7.0,8.0,80,0.00,,,0.00,meteohub,2013-04-22 07:42:00,
2013-04-22 03:47:00,39.9,34.3,30.67,ENE,68,7.0,10.0,80,0.00,,,0.00,meteohub,2013-04-22 07:47:00,
2013-04-22 03:52:00,39.9,34.3,30.67,ENE,68,7.0,10.0,80,0.00,,,0.00,meteohub,2013-04-22 07:52:00,
2013-04-22 03:57:00,39.9,34.3,30.67,ESE,113,7.0,9.0,80,0.00,,,0.00,meteohub,2013-04-22 07:57:00,
2013-04-22 04:02:00,39.9,34.3,30.67,ENE,68,8.0,9.0,80,0.00,,,0.00,meteohub,2013-04-22 08:02:00,
2013-04-22 04:07:00,39.7,34.3,30.67,ENE,68,9.0,10.0,81,0.00,,,0.00,meteohub,2013-04-22 08:07:00,
2013-04-22 04:12:00,39.7,34.3,30.67,East,90,10.0,10.0,81,0.00,,,0.00,meteohub,2013-04-22 08:12:00,
2013-04-22 04:17:00,39.7,34.3,30.67,ENE,68,10.0,10.0,81,0.00,,,0.00,meteohub,2013-04-22 08:17:00,
2013-04-22 04:22:00,39.7,34.3,30.67,ESE,113,10.0,10.0,81,0.00,,,0.00,meteohub,2013-04-22 08:22:00,
2013-04-22 04:27:00,39.7,34.3,30.66,ENE,68,6.0,11.0,81,0.00,,,0.00,meteohub,2013-04-22 08:27:00,
2013-04-22 04:32:00,39.7,34.3,30.66,ENE,68,7.0,11.0,81,0.00,,,0.00,meteohub,2013-04-22 08:32:00,
2013-04-22 04:37:00,39.4,34.0,30.66,ENE,68,7.0,10.0,81,0.00,,,0.00,meteohub,2013-04-22 08:37:00,
2013-04-22 04:42:00,39.4,34.0,30.66,East,90,8.0,8.0,81,0.00,,,0.00,meteohub,2013-04-22 08:42:00,
2013-04-22 04:47:00,39.2,33.8,30.66,ENE,68,7.0,8.0,81,0.00,,,0.00,meteohub,2013-04-22 08:47:00,
2013-04-22 04:52:00,39.0,33.6,30.66,ENE,68,7.0,8.0,81,0.00,,,0.00,meteohub,2013-04-22 08:52:00,
2013-04-22 04:57:00,39.0,33.6,30.66,ENE,68,4.0,8.0,81,0.00,,,0.00,meteohub,2013-04-22 08:57:00,
2013-04-22 05:02:00,38.8,33.4,30.66,ESE,113,7.0,8.0,81,0.00,,,0.00,meteohub,2013-04-22 09:02:00,
2013-04-22 05:07:00,39.0,33.6,30.66,East,90,9.0,9.0,81,0.00,,,0.00,meteohub,2013-04-22 09:07:00,
2013-04-22 05:12:00,38.8,33.8,30.66,ENE,68,5.0,9.0,82,0.00,,,0.00,meteohub,2013-04-22 09:12:00,
2013-04-22 05:17:00,38.8,33.8,30.66,ENE,68,5.0,9.0,82,0.00,,,0.00,meteohub,2013-04-22 09:17:00,
2013-04-22 05:22:00,38.8,33.8,30.66,ENE,68,7.0,9.0,82,0.00,,,0.00,meteohub,2013-04-22 09:22:00,
2013-04-22 05:27:00,39.0,34.0,30.67,East,90,4.0,8.0,82,0.00,,,0.00,meteohub,2013-04-22 09:27:00,
2013-04-22 05:32:00,39.0,34.0,30.67,ESE,113,6.0,7.0,82,0.00,,,0.00,meteohub,2013-04-22 09:32:00,
2013-04-22 05:37:00,38.8,33.8,30.67,NE,45,8.0,8.0,82,0.00,,,0.00,meteohub,2013-04-22 09:37:00,
2013-04-22 05:42:00,38.7,33.6,30.68,ESE,113,5.0,8.0,82,0.00,,,0.00,meteohub,2013-04-22 09:42:00,
2013-04-22 05:47:00,38.7,33.6,30.68,SE,135,6.0,9.0,82,0.00,,,0.00,meteohub,2013-04-22 09:47:00,
2013-04-22 05:52:00,38.7,33.6,30.68,SE,135,6.0,9.0,82,0.00,,,0.00,meteohub,2013-04-22 09:52:00,
2013-04-22 05:57:00,38.7,33.6,30.68,ESE,113,5.0,9.0,82,0.00,,,0.00,meteohub,2013-04-22 09:57:00,
2013-04-22 06:02:00,38.5,33.4,30.68,East,90,4.0,9.0,82,0.00,,,0.00,meteohub,2013-04-22 10:02:00,
2013-04-22 06:07:00,38.7,33.6,30.68,SE,135,8.0,8.0,82,0.00,,,0.00,meteohub,2013-04-22 10:07:00,
2013-04-22 06:12:00,38.7,33.6,30.68,SE,135,8.0,8.0,82,0.00,,,0.00,meteohub,2013-04-22 10:12:00,
2013-04-22 06:17:00,38.5,33.4,30.68,ESE,113,7.0,8.0,82,0.00,,,0.00,meteohub,2013-04-22 10:17:00,
2013-04-22 06:22:00,38.5,33.4,30.69,SE,135,6.0,8.0,82,0.00,,,0.00,meteohub,2013-04-22 10:22:00,
2013-04-22 06:27:00,38.7,33.6,30.69,ENE,68,5.0,9.0,82,0.00,,,0.00,meteohub,2013-04-22 10:27:00,
2013-04-22 06:32:00,38.5,33.4,30.69,SE,135,7.0,9.0,82,0.00,,,0.00,meteohub,2013-04-22 10:32:00,
2013-04-22 06:37:00,38.5,33.4,30.69,ENE,68,6.0,9.0,82,0.00,,,0.00,meteohub,2013-04-22 10:37:00,
2013-04-22 06:42:00,38.7,33.6,30.69,East,90,8.0,8.0,82,0.00,,,0.00,meteohub,2013-04-22 10:42:00,
2013-04-22 06:47:00,39.0,34.0,30.69,ENE,68,8.0,8.0,82,0.00,,,0.00,meteohub,2013-04-22 10:47:00,
2013-04-22 06:52:00,38.8,33.8,30.69,ENE,68,9.0,11.0,82,0.00,,,0.00,meteohub,2013-04-22 10:52:00,
2013-04-22 06:57:00,39.0,34.0,30.69,ENE,68,9.0,11.0,82,0.00,,,0.00,meteohub,2013-04-22 10:57:00,
2013-04-22 07:02:00,39.2,34.2,30.69,SE,135,12.0,12.0,82,0.00,,,0.00,meteohub,2013-04-22 11:02:00,
2013-04-22 07:07:00,39.4,34.3,30.69,ESE,113,12.0,12.0,82,0.00,,,0.00,meteohub,2013-04-22 11:07:00,
2013-04-22 07:12:00,39.4,34.3,30.69,ENE,68,11.0,13.0,82,0.00,,,0.00,meteohub,2013-04-22 11:12:00,
2013-04-22 07:17:00,39.4,34.0,30.69,ESE,113,16.0,16.0,81,0.00,,,0.00,meteohub,2013-04-22 11:17:00,
2013-04-22 07:22:00,39.7,34.3,30.70,ESE,113,9.0,16.0,81,0.00,,,0.00,meteohub,2013-04-22 11:22:00,
2013-04-22 07:27:00,39.7,34.3,30.70,East,90,9.0,16.0,81,0.00,,,0.00,meteohub,2013-04-22 11:27:00,
2013-04-22 07:32:00,39.9,34.3,30.70,SE,135,11.0,16.0,80,0.00,,,0.00,meteohub,2013-04-22 11:32:00,
2013-04-22 07:37:00,40.1,34.5,30.70,East,90,13.0,13.0,80,0.00,,,0.00,meteohub,2013-04-22 11:37:00,
2013-04-22 07:42:00,40.1,34.5,30.70,ESE,113,11.0,13.0,80,0.00,,,0.00,meteohub,2013-04-22 11:42:00,
2013-04-22 07:47:00,40.3,34.5,30.70,East,90,6.0,13.0,80,0.00,,,0.00,meteohub,2013-04-22 11:47:00,
2013-04-22 07:52:00,40.3,34.5,30.70,East,90,7.0,13.0,80,0.00,,,0.00,meteohub,2013-04-22 11:52:00,
2013-04-22 07:57:00,40.6,34.9,30.70,SE,135,10.0,11.0,80,0.00,,,0.00,meteohub,2013-04-22 11:57:00,
2013-04-22 08:02:00,40.8,34.9,30.69,ENE,68,11.0,11.0,79,0.00,,,0.00,meteohub,2013-04-22 12:02:00,
2013-04-22 08:07:00,41.2,35.2,30.69,ESE,113,11.0,11.0,79,0.00,,,0.00,meteohub,2013-04-22 12:07:00,
2013-04-22 08:12:00,41.4,35.1,30.69,ENE,68,15.0,15.0,78,0.00,,,0.00,meteohub,2013-04-22 12:12:00,
2013-04-22 08:17:00,41.5,35.2,30.69,North,0,12.0,12.0,78,0.00,,,0.00,meteohub,2013-04-22 12:17:00,
2013-04-22 08:22:00,41.9,35.6,30.69,East,90,13.0,15.0,78,0.00,,,0.00,meteohub,2013-04-22 12:22:00,
2013-04-22 08:27:00,41.9,35.2,30.69,East,90,11.0,15.0,77,0.00,,,0.00,meteohub,2013-04-22 12:27:00,
2013-04-22 08:32:00,42.1,35.4,30.69,SE,135,10.0,15.0,77,0.00,,,0.00,meteohub,2013-04-22 12:32:00,
2013-04-22 08:37:00,42.4,35.8,30.69,East,90,16.0,16.0,77,0.00,,,0.00,meteohub,2013-04-22 12:37:00,
2013-04-22 08:42:00,42.6,35.6,30.69,ENE,68,16.0,16.0,76,0.00,,,0.00,meteohub,2013-04-22 12:42:00,
2013-04-22 08:47:00,42.8,35.8,30.69,SE,135,18.0,18.0,76,0.00,,,0.00,meteohub,2013-04-22 12:47:00,
2013-04-22 08:52:00,43.0,35.6,30.69,SSE,158,14.0,18.0,75,0.00,,,0.00,meteohub,2013-04-22 12:52:00,
2013-04-22 08:57:00,43.3,36.0,30.69,ENE,68,7.0,18.0,75,0.00,,,0.00,meteohub,2013-04-22 12:57:00,
2013-04-22 09:02:00,43.5,35.8,30.69,ESE,113,15.0,18.0,74,0.00,,,0.00,meteohub,2013-04-22 13:02:00,
2013-04-22 09:07:00,43.7,36.0,30.69,SE,135,14.0,21.0,74,0.00,,,0.00,meteohub,2013-04-22 13:07:00,
2013-04-22 09:12:00,44.1,36.0,30.69,SE,135,19.0,21.0,73,0.00,,,0.00,meteohub,2013-04-22 13:12:00,
2013-04-22 09:17:00,44.4,36.0,30.69,SSE,158,19.0,26.0,72,0.00,,,0.00,meteohub,2013-04-22 13:17:00,
2013-04-22 09:22:00,44.8,36.0,30.71,SE,135,20.0,26.0,71,0.00,,,0.00,meteohub,2013-04-22 13:22:00,
2013-04-22 09:27:00,44.8,35.6,30.71,SE,135,22.0,28.0,70,0.00,,,0.00,meteohub,2013-04-22 13:27:00,
2013-04-22 09:32:00,45.0,35.8,30.71,SE,135,18.0,28.0,70,0.00,,,0.00,meteohub,2013-04-22 13:32:00,
2013-04-22 09:37:00,45.1,35.6,30.71,SE,135,30.0,30.0,69,0.00,,,0.00,meteohub,2013-04-22 13:37:00,
2013-04-22 09:42:00,45.5,35.6,30.71,SE,135,28.0,30.0,68,0.00,,,0.00,meteohub,2013-04-22 13:42:00,
2013-04-22 09:47:00,45.7,35.4,30.71,SE,135,21.0,30.0,67,0.00,,,0.00,meteohub,2013-04-22 13:47:00,
2013-04-22 09:52:00,45.9,36.0,30.71,SE,135,15.0,31.0,68,0.00,,,0.00,meteohub,2013-04-22 13:52:00,
2013-04-22 09:57:00,46.2,36.3,30.71,SSE,158,23.0,31.0,68,0.00,,,0.00,meteohub,2013-04-22 13:57:00,
2013-04-22 10:02:00,46.6,36.5,30.70,ESE,113,29.0,29.0,68,0.00,,,0.00,meteohub,2013-04-22 14:02:00,
2013-04-22 10:07:00,46.6,36.5,30.70,SE,135,22.0,25.0,68,0.00,,,0.00,meteohub,2013-04-22 14:07:00,
2013-04-22 10:12:00,46.8,36.3,30.70,West,270,26.0,29.0,67,0.00,,,0.00,meteohub,2013-04-22 14:12:00,
2013-04-22 10:17:00,46.9,36.5,30.70,SSE,158,27.0,32.0,67,0.00,,,0.00,meteohub,2013-04-22 14:17:00,
2013-04-22 10:22:00,47.3,36.9,30.70,SSE,158,22.0,32.0,67,0.00,,,0.00,meteohub,2013-04-22 14:22:00,
2013-04-22 10:27:00,47.5,37.0,30.70,SSE,158,34.0,34.0,67,0.00,,,0.00,meteohub,2013-04-22 14:27:00,
2013-04-22 10:32:00,47.7,37.2,30.70,SE,135,25.0,34.0,67,0.00,,,0.00,meteohub,2013-04-22 14:32:00,
2013-04-22 10:37:00,47.8,37.4,30.70,SE,135,27.0,34.0,67,0.00,,,0.00,meteohub,2013-04-22 14:37:00,
2013-04-22 10:42:00,47.8,37.0,30.70,SSE,158,25.0,34.0,66,0.00,,,0.00,meteohub,2013-04-22 14:42:00,
2013-04-22 10:47:00,48.0,37.2,30.70,SSE,158,24.0,34.0,66,0.00,,,0.00,meteohub,2013-04-22 14:47:00,
2013-04-22 10:52:00,48.4,37.6,30.70,SSE,158,23.0,34.0,66,0.00,,,0.00,meteohub,2013-04-22 14:52:00,
2013-04-22 10:57:00,48.4,37.6,30.70,SSE,158,23.0,34.0,66,0.00,,,0.00,meteohub,2013-04-22 14:57:00,
2013-04-22 11:02:00,48.7,37.9,30.70,SE,135,32.0,34.0,66,0.00,,,0.00,meteohub,2013-04-22 15:02:00,
2013-04-22 11:07:00,48.7,37.6,30.70,SE,135,21.0,32.0,65,0.00,,,0.00,meteohub,2013-04-22 15:07:00,
2013-04-22 11:12:00,49.1,37.8,30.70,SE,135,26.0,34.0,65,0.00,,,0.00,meteohub,2013-04-22 15:12:00,
2013-04-22 11:17:00,49.1,37.4,30.70,South,180,27.0,34.0,64,0.00,,,0.00,meteohub,2013-04-22 15:17:00,
2013-04-22 11:22:00,49.3,37.2,30.70,SE,135,24.0,34.0,63,0.00,,,0.00,meteohub,2013-04-22 15:22:00,
2013-04-22 11:27:00,49.3,36.9,30.70,SSE,158,18.0,34.0,62,0.00,,,0.00,meteohub,2013-04-22 15:27:00,
2013-04-22 11:32:00,49.6,36.7,30.70,SSE,158,23.0,32.0,61,0.00,,,0.00,meteohub,2013-04-22 15:32:00,
2013-04-22 11:37:00,49.8,37.4,30.70,SSE,158,16.0,25.0,62,0.00,,,0.00,meteohub,2013-04-22 15:37:00,
2013-04-22 11:42:00,50.0,37.6,30.69,SSE,158,21.0,28.0,62,0.00,,,0.00,meteohub,2013-04-22 15:42:00,
2013-04-22 11:47:00,50.0,37.6,30.69,SSE,158,19.0,28.0,62,0.00,,,0.00,meteohub,2013-04-22 15:47:00,
2013-04-22 11:52:00,50.2,37.6,30.69,SSE,158,19.0,28.0,62,0.00,,,0.00,meteohub,2013-04-22 15:52:00,
2013-04-22 11:57:00,50.4,37.8,30.69,SSE,158,19.0,26.0,62,0.00,,,0.00,meteohub,2013-04-22 15:57:00,
2013-04-22 12:02:00,50.5,37.9,30.69,SSE,158,19.0,26.0,62,0.00,,,0.00,meteohub,2013-04-22 16:02:00,
2013-04-22 12:07:00,50.9,37.9,30.69,South,180,27.0,27.0,61,0.00,,,0.00,meteohub,2013-04-22 16:07:00,
2013-04-22 12:12:00,50.9,37.9,30.69,South,180,27.0,27.0,61,0.00,,,0.00,meteohub,2013-04-22 16:12:00,
2013-04-22 12:17:00,51.3,37.4,30.69,SE,135,23.0,27.0,59,0.00,,,0.00,meteohub,2013-04-22 16:17:00,
2013-04-22 12:22:00,52.0,38.1,30.69,SE,135,14.0,27.0,59,0.00,,,0.00,meteohub,2013-04-22 16:22:00,
2013-04-22 12:27:00,52.0,38.5,30.69,SSE,158,17.0,27.0,60,0.00,,,0.00,meteohub,2013-04-22 16:27:00,
2013-04-22 12:32:00,51.6,38.7,30.69,SSE,158,15.0,23.0,61,0.00,,,0.00,meteohub,2013-04-22 16:32:00,
2013-04-22 12:37:00,51.3,38.3,30.69,SE,135,19.0,22.0,61,0.00,,,0.00,meteohub,2013-04-22 16:37:00,
2013-04-22 12:42:00,50.9,38.3,30.68,South,180,15.0,19.0,62,0.00,,,0.00,meteohub,2013-04-22 16:42:00,
2013-04-22 12:47:00,51.1,38.5,30.68,SSE,158,20.0,26.0,62,0.00,,,0.00,meteohub,2013-04-22 16:47:00,
2013-04-22 12:52:00,50.9,38.3,30.68,SSE,158,17.0,26.0,62,0.00,,,0.00,meteohub,2013-04-22 16:52:00,
2013-04-22 12:57:00,50.9,38.3,30.68,SSE,158,26.0,26.0,62,0.00,,,0.00,meteohub,2013-04-22 16:57:00,
2013-04-22 13:02:00,51.3,38.7,30.68,SSE,158,27.0,27.0,62,0.00,,,0.00,meteohub,2013-04-22 17:02:00,
2013-04-22 13:07:00,51.3,38.7,30.66,SSE,158,26.0,27.0,62,0.00,,,0.00,meteohub,2013-04-22 17:07:00,
2013-04-22 13:12:00,52.0,40.1,30.66,SE,135,26.0,27.0,64,0.00,,,0.00,meteohub,2013-04-22 17:12:00,
2013-04-22 13:17:00,52.7,40.8,30.66,SSE,158,26.0,27.0,64,0.00,,,0.00,meteohub,2013-04-22 17:17:00,
2013-04-22 13:22:00,53.4,41.2,30.66,SSE,158,16.0,26.0,63,0.00,,,0.00,meteohub,2013-04-22 17:22:00,
2013-04-22 13:27:00,54.1,41.4,30.66,SSE,158,10.0,26.0,62,0.00,,,0.00,meteohub,2013-04-22 17:27:00,
2013-04-22 13:32:00,54.1,40.6,30.66,SSE,158,19.0,26.0,60,0.00,,,0.00,meteohub,2013-04-22 17:32:00,
2013-04-22 13:37:00,54.1,40.6,30.66,SSE,158,16.0,24.0,60,0.00,,,0.00,meteohub,2013-04-22 17:37:00,
2013-04-22 13:42:00,54.5,40.8,30.66,South,180,15.0,24.0,60,0.00,,,0.00,meteohub,2013-04-22 17:42:00,
2013-04-22 13:47:00,54.9,41.2,30.66,SSE,158,22.0,24.0,60,0.00,,,0.00,meteohub,2013-04-22 17:47:00,
2013-04-22 13:52:00,54.7,40.6,30.66,South,180,19.0,22.0,59,0.00,,,0.00,meteohub,2013-04-22 17:52:00,
2013-04-22 13:57:00,54.9,41.2,30.66,SSE,158,22.0,22.0,60,0.00,,,0.00,meteohub,2013-04-22 17:57:00,
2013-04-22 14:02:00,54.9,40.8,30.64,South,180,17.0,22.0,59,0.00,,,0.00,meteohub,2013-04-22 18:02:00,
2013-04-22 14:07:00,54.7,40.3,30.64,SE,135,22.0,27.0,58,0.00,,,0.00,meteohub,2013-04-22 18:07:00,
2013-04-22 14:12:00,54.7,40.3,30.64,SSE,158,25.0,27.0,58,0.00,,,0.00,meteohub,2013-04-22 18:12:00,
2013-04-22 14:17:00,55.0,41.0,30.64,South,180,15.0,27.0,59,0.00,,,0.00,meteohub,2013-04-22 18:17:00,
2013-04-22 14:22:00,55.6,41.5,30.64,South,180,21.0,25.0,59,0.00,,,0.00,meteohub,2013-04-22 18:22:00,
2013-04-22 14:27:00,55.6,41.0,30.64,SSE,158,13.0,25.0,58,0.00,,,0.00,meteohub,2013-04-22 18:27:00,
2013-04-22 14:32:00,55.8,41.2,30.64,SSE,158,18.0,23.0,58,0.00,,,0.00,meteohub,2013-04-22 18:32:00,
2013-04-22 14:37:00,55.6,40.6,30.64,SE,135,19.0,23.0,57,0.00,,,0.00,meteohub,2013-04-22 18:37:00,
2013-04-22 14:42:00,55.4,40.5,30.64,SSE,158,15.0,19.0,57,0.00,,,0.00,meteohub,2013-04-22 18:42:00,
2013-04-22 14:47:00,55.6,40.6,30.64,SSE,158,25.0,25.0,57,0.00,,,0.00,meteohub,2013-04-22 18:47:00,
2013-04-22 14:52:00,55.8,41.2,30.64,SSE,158,17.0,26.0,58,0.00,,,0.00,meteohub,2013-04-22 18:52:00,
2013-04-22 14:57:00,56.1,41.5,30.64,South,180,18.0,26.0,58,0.00,,,0.00,meteohub,2013-04-22 18:57:00,
2013-04-22 15:02:00,56.3,40.8,30.63,SSE,158,26.0,26.0,56,0.00,,,0.00,meteohub,2013-04-22 19:02:00,
2013-04-22 15:07:00,55.8,40.8,30.63,SE,135,23.0,26.0,57,0.00,,,0.00,meteohub,2013-04-22 19:07:00,
2013-04-22 15:12:00,55.4,40.5,30.63,SSE,158,18.0,26.0,57,0.00,,,0.00,meteohub,2013-04-22 19:12:00,
2013-04-22 15:17:00,55.6,41.0,30.63,SSE,158,19.0,26.0,58,0.00,,,0.00,meteohub,2013-04-22 19:17:00,
2013-04-22 15:22:00,55.0,41.0,30.63,SSE,158,19.0,26.0,59,0.00,,,0.00,meteohub,2013-04-22 19:22:00,
2013-04-22 15:27:00,54.9,41.2,30.63,SSE,158,23.0,26.0,60,0.00,,,0.00,meteohub,2013-04-22 19:27:00,
2013-04-22 15:32:00,54.9,41.2,30.63,SE,135,26.0,26.0,60,0.00,,,0.00,meteohub,2013-04-22 19:32:00,
2013-04-22 15:37:00,55.4,41.7,30.63,SSE,158,29.0,29.0,60,0.00,,,0.00,meteohub,2013-04-22 19:37:00,
2013-04-22 15:42:00,54.9,41.2,30.62,ESE,113,21.0,29.0,60,0.00,,,0.00,meteohub,2013-04-22 19:42:00,
2013-04-22 15:47:00,54.7,41.0,30.62,SSE,158,18.0,29.0,60,0.00,,,0.00,meteohub,2013-04-22 19:47:00,
2013-04-22 15:52:00,55.0,41.9,30.62,SE,135,19.0,29.0,61,0.00,,,0.00,meteohub,2013-04-22 19:52:00,
2013-04-22 15:57:00,55.9,43.2,30.62,SSE,158,17.0,28.0,62,0.00,,,0.00,meteohub,2013-04-22 19:57:00,
2013-04-22 16:02:00,56.3,43.5,30.62,South,180,19.0,28.0,62,0.00,,,0.00,meteohub,2013-04-22 20:02:00,
2013-04-22 16:07:00,56.5,43.7,30.62,SSE,158,19.0,28.0,62,0.00,,,0.00,meteohub,2013-04-22 20:07:00,
2013-04-22 16:12:00,57.0,43.7,30.62,SSE,158,26.0,28.0,61,0.00,,,0.00,meteohub,2013-04-22 20:12:00,
2013-04-22 16:17:00,57.0,43.3,30.62,SSE,158,27.0,28.0,60,0.00,,,0.00,meteohub,2013-04-22 20:17:00,
2013-04-22 16:22:00,57.2,43.9,30.62,SE,135,25.0,27.0,61,0.00,,,0.00,meteohub,2013-04-22 20:22:00,
2013-04-22 16:27:00,57.7,44.4,30.61,SSE,158,22.0,27.0,61,0.00,,,0.00,meteohub,2013-04-22 20:27:00,
2013-04-22 16:32:00,58.1,44.2,30.61,SE,135,19.0,28.0,60,0.00,,,0.00,meteohub,2013-04-22 20:32:00,
2013-04-22 16:37:00,58.5,44.2,30.61,SE,135,27.0,28.0,59,0.00,,,0.00,meteohub,2013-04-22 20:37:00,
2013-04-22 16:42:00,58.1,43.3,30.61,SSE,158,23.0,28.0,58,0.00,,,0.00,meteohub,2013-04-22 20:42:00,
2013-04-22 16:47:00,57.9,43.7,30.61,SSE,158,29.0,29.0,59,0.00,,,0.00,meteohub,2013-04-22 20:47:00,
2013-04-22 16:52:00,57.7,43.0,30.61,SE,135,27.0,29.0,58,0.00,,,0.00,meteohub,2013-04-22 20:52:00,
2013-04-22 16:57:00,57.0,42.4,30.61,SSE,158,20.0,29.0,58,0.00,,,0.00,meteohub,2013-04-22 20:57:00,
2013-04-22 17:02:00,57.2,43.5,30.61,SE,135,26.0,30.0,60,0.00,,,0.00,meteohub,2013-04-22 21:02:00,
2013-04-22 17:07:00,57.7,43.5,30.61,SSE,158,21.0,30.0,59,0.00,,,0.00,meteohub,2013-04-22 21:07:00,
2013-04-22 17:12:00,57.7,43.0,30.61,SSE,158,24.0,28.0,58,0.00,,,0.00,meteohub,2013-04-22 21:12:00,
2013-04-22 17:17:00,57.2,42.6,30.61,SSE,158,22.0,26.0,58,0.00,,,0.00,meteohub,2013-04-22 21:17:00,
2013-04-22 17:22:00,56.8,42.3,30.61,SSE,158,18.0,24.0,58,0.00,,,0.00,meteohub,2013-04-22 21:22:00,
2013-04-22 17:27:00,57.4,43.2,30.61,SSE,158,25.0,33.0,59,0.00,,,0.00,meteohub,2013-04-22 21:27:00,
2013-04-22 17:32:00,57.4,42.8,30.61,ESE,113,23.0,34.0,58,0.00,,,0.00,meteohub,2013-04-22 21:32:00,
2013-04-22 17:37:00,57.2,42.6,30.61,SE,135,28.0,34.0,58,0.00,,,0.00,meteohub,2013-04-22 21:37:00,
2013-04-22 17:42:00,56.8,42.3,30.60,SE,135,26.0,34.0,58,0.00,,,0.00,meteohub,2013-04-22 21:42:00,
2013-04-22 17:47:00,56.5,41.9,30.60,SE,135,23.0,28.0,58,0.00,,,0.00,meteohub,2013-04-22 21:47:00,
2013-04-22 17:52:00,56.3,41.7,30.60,SE,135,20.0,28.0,58,0.00,,,0.00,meteohub,2013-04-22 21:52:00,
2013-04-22 17:57:00,56.3,42.1,30.60,SSE,158,25.0,33.0,59,0.00,,,0.00,meteohub,2013-04-22 21:57:00,
2013-04-22 18:02:00,55.9,41.4,30.60,ESE,113,26.0,33.0,58,0.00,,,0.00,meteohub,2013-04-22 22:02:00,
2013-04-22 18:07:00,55.0,41.0,30.60,SSE,158,21.0,33.0,59,0.00,,,0.00,meteohub,2013-04-22 22:07:00,
2013-04-22 18:12:00,55.0,41.0,30.60,SE,135,30.0,30.0,59,0.00,,,0.00,meteohub,2013-04-22 22:12:00,
2013-04-22 18:17:00,54.1,40.6,30.60,SSE,158,19.0,30.0,60,0.00,,,0.00,meteohub,2013-04-22 22:17:00,
2013-04-22 18:22:00,54.0,40.5,30.61,SSE,158,21.0,30.0,60,0.00,,,0.00,meteohub,2013-04-22 22:22:00,
2013-04-22 18:27:00,53.6,39.6,30.61,SE,135,28.0,30.0,59,0.00,,,0.00,meteohub,2013-04-22 22:27:00,
2013-04-22 18:32:00,53.1,39.2,30.61,SSE,158,30.0,37.0,59,0.00,,,0.00,meteohub,2013-04-22 22:32:00,
2013-04-22 18:37:00,52.7,39.2,30.61,SE,135,27.0,37.0,60,0.00,,,0.00,meteohub,2013-04-22 22:37:00,
2013-04-22 18:42:00,52.2,39.2,30.60,ESE,113,30.0,30.0,61,0.00,,,0.00,meteohub,2013-04-22 22:42:00,
2013-04-22 18:47:00,51.4,38.8,30.60,SE,135,25.0,30.0,62,0.00,,,0.00,meteohub,2013-04-22 22:47:00,
2013-04-22 18:52:00,51.1,38.5,30.60,SE,135,30.0,30.0,62,0.00,,,0.00,meteohub,2013-04-22 22:52:00,
2013-04-22 18:57:00,50.5,37.9,30.60,SSE,158,24.0,30.0,62,0.00,,,0.00,meteohub,2013-04-22 22:57:00,
2013-04-22 19:02:00,50.2,38.1,30.60,SSE,158,23.0,30.0,63,0.00,,,0.00,meteohub,2013-04-22 23:02:00,
2013-04-22 19:07:00,49.6,37.9,30.60,SE,135,25.0,30.0,64,0.00,,,0.00,meteohub,2013-04-22 23:07:00,
2013-04-22 19:12:00,49.1,37.8,30.60,SSE,158,27.0,27.0,65,0.00,,,0.00,meteohub,2013-04-22 23:12:00,
2013-04-22 19:17:00,48.7,37.6,30.60,SE,135,21.0,27.0,65,0.00,,,0.00,meteohub,2013-04-22 23:17:00,
2013-04-22 19:22:00,48.2,37.0,30.60,SE,135,24.0,27.0,65,0.00,,,0.00,meteohub,2013-04-22 23:22:00,
2013-04-22 19:27:00,47.8,36.7,30.60,SSE,158,21.0,27.0,65,0.00,,,0.00,meteohub,2013-04-22 23:27:00,
2013-04-22 19:32:00,46.9,36.1,30.60,SSE,158,17.0,30.0,66,0.00,,,0.00,meteohub,2013-04-22 23:32:00,
2013-04-22 19:37:00,46.9,36.5,30.60,SSE,158,29.0,30.0,67,0.00,,,0.00,meteohub,2013-04-22 23:37:00,
2013-04-22 19:42:00,46.4,36.0,30.60,SSE,158,19.0,30.0,67,0.00,,,0.00,meteohub,2013-04-22 23:42:00,
2013-04-22 19:47:00,46.4,36.5,30.60,SE,135,22.0,29.0,68,0.00,,,0.00,meteohub,2013-04-22 23:47:00,
2013-04-22 19:52:00,46.0,36.1,30.60,SE,135,23.0,29.0,68,0.00,,,0.00,meteohub,2013-04-22 23:52:00,
2013-04-22 19:57:00,45.7,36.5,30.60,SE,135,26.0,26.0,70,0.00,,,0.00,meteohub,2013-04-22 23:57:00,
2013-04-22 20:02:00,45.5,36.7,30.59,SE,135,21.0,26.0,71,0.00,,,0.00,meteohub,2013-04-23 00:02:00,
2013-04-22 20:07:00,45.5,36.7,30.59,SE,135,23.0,26.0,71,0.00,,,0.00,meteohub,2013-04-23 00:07:00,
2013-04-22 20:12:00,45.1,36.7,30.59,SE,135,18.0,26.0,72,0.00,,,0.00,meteohub,2013-04-23 00:12:00,
2013-04-22 20:17:00,45.0,36.5,30.59,SE,135,24.0,24.0,72,0.00,,,0.00,meteohub,2013-04-23 00:17:00,
2013-04-22 20:22:00,45.0,36.5,30.58,SE,135,19.0,24.0,72,0.00,,,0.00,meteohub,2013-04-23 00:22:00,
2013-04-22 20:27:00,44.8,36.7,30.58,SE,135,27.0,27.0,73,0.00,,,0.00,meteohub,2013-04-23 00:27:00,
2013-04-22 20:32:00,44.8,36.7,30.58,SSE,158,22.0,29.0,73,0.00,,,0.00,meteohub,2013-04-23 00:32:00,
2013-04-22 20:37:00,44.4,36.3,30.58,SE,135,18.0,29.0,73,0.00,,,0.00,meteohub,2013-04-23 00:37:00,
2013-04-22 20:42:00,44.6,36.9,30.58,SE,135,29.0,29.0,74,0.00,,,0.00,meteohub,2013-04-23 00:42:00,
2013-04-22 20:47:00,44.4,37.0,30.59,SE,135,31.0,31.0,75,0.00,,,0.00,meteohub,2013-04-23 00:47:00,
2013-04-22 20:52:00,44.2,36.9,30.59,SE,135,27.0,31.0,75,0.00,,,0.00,meteohub,2013-04-23 00:52:00,
2013-04-22 20:57:00,44.4,37.0,30.59,SE,135,24.0,31.0,75,0.00,,,0.00,meteohub,2013-04-23 00:57:00,
2013-04-22 21:02:00,44.2,36.9,30.58,SE,135,23.0,31.0,75,0.00,,,0.00,meteohub,2013-04-23 01:02:00,
2013-04-22 21:07:00,44.1,36.7,30.58,SE,135,22.0,28.0,75,0.00,,,0.00,meteohub,2013-04-23 01:07:00,
2013-04-22 21:12:00,44.1,36.7,30.58,SE,135,21.0,28.0,75,0.00,,,0.00,meteohub,2013-04-23 01:12:00,
2013-04-22 21:17:00,44.1,37.0,30.58,SE,135,23.0,28.0,76,0.00,,,0.00,meteohub,2013-04-23 01:17:00,
2013-04-22 21:22:00,44.1,37.0,30.58,SE,135,18.0,23.0,76,0.00,,,0.00,meteohub,2013-04-23 01:22:00,
2013-04-22 21:27:00,43.9,36.5,30.58,ESE,113,18.0,23.0,75,0.00,,,0.00,meteohub,2013-04-23 01:27:00,
2013-04-22 21:32:00,44.1,36.7,30.58,SE,135,23.0,23.0,75,0.00,,,0.00,meteohub,2013-04-23 01:32:00,
2013-04-22 21:37:00,43.9,36.1,30.58,SE,135,17.0,24.0,74,0.00,,,0.00,meteohub,2013-04-23 01:37:00,
2013-04-22 21:42:00,43.7,36.0,30.58,SE,135,17.0,24.0,74,0.00,,,0.00,meteohub,2013-04-23 01:42:00,
2013-04-22 21:47:00,43.5,35.8,30.58,ENE,68,19.0,23.0,74,0.00,,,0.00,meteohub,2013-04-23 01:47:00,
2013-04-22 21:52:00,43.5,35.4,30.58,SE,135,28.0,28.0,73,0.00,,,0.00,meteohub,2013-04-23 01:52:00,
2013-04-22 21:57:00,43.3,34.9,30.58,SE,135,26.0,26.0,72,0.00,,,0.00,meteohub,2013-04-23 01:57:00,
2013-04-22 22:02:00,43.0,34.5,30.58,ESE,113,19.0,28.0,72,0.00,,,0.00,meteohub,2013-04-23 02:02:00,
2013-04-22 22:07:00,43.0,34.5,30.58,SE,135,23.0,28.0,72,0.00,,,0.00,meteohub,2013-04-23 02:07:00,
2013-04-22 22:12:00,42.8,34.3,30.58,SE,135,19.0,26.0,72,0.00,,,0.00,meteohub,2013-04-23 02:12:00,
2013-04-22 22:17:00,42.8,34.3,30.58,ESE,113,18.0,25.0,72,0.00,,,0.00,meteohub,2013-04-23 02:17:00,
2013-04-22 22:22:00,42.6,34.2,30.58,ESE,113,12.0,25.0,72,0.00,,,0.00,meteohub,2013-04-23 02:22:00,
2013-04-22 22:27:00,42.6,34.2,30.58,SE,135,13.0,25.0,72,0.00,,,0.00,meteohub,2013-04-23 02:27:00,
2013-04-22 22:32:00,42.6,34.5,30.58,SE,135,17.0,25.0,73,0.00,,,0.00,meteohub,2013-04-23 02:32:00,
2013-04-22 22:37:00,42.3,34.2,30.58,ESE,113,14.0,23.0,73,0.00,,,0.00,meteohub,2013-04-23 02:37:00,
2013-04-22 22:43:00,42.3,34.2,30.58,ESE,113,8.0,23.0,73,0.00,,,0.00,meteohub,2013-04-23 02:43:00,
2013-04-22 22:48:00,42.3,34.5,30.58,ENE,68,14.0,17.0,74,0.00,,,0.00,meteohub,2013-04-23 02:48:00,
2013-04-22 22:53:00,42.3,34.5,30.58,ESE,113,10.0,16.0,74,0.00,,,0.00,meteohub,2013-04-23 02:53:00,
2013-04-22 22:58:00,42.3,34.5,30.58,East,90,17.0,17.0,74,0.00,,,0.00,meteohub,2013-04-23 02:58:00,
2013-04-22 23:03:00,42.3,34.5,30.56,SE,135,13.0,16.0,74,0.00,,,0.00,meteohub,2013-04-23 03:03:00,
2013-04-22 23:08:00,42.1,34.3,30.56,SE,135,15.0,17.0,74,0.00,,,0.00,meteohub,2013-04-23 03:08:00,
2013-04-22 23:13:00,42.3,34.5,30.56,SSE,158,13.0,17.0,74,0.00,,,0.00,meteohub,2013-04-23 03:13:00,
2013-04-22 23:18:00,42.1,34.3,30.56,ESE,113,14.0,17.0,74,0.00,,,0.00,meteohub,2013-04-23 03:18:00,
2013-04-22 23:23:00,42.1,34.7,30.57,West,270,10.0,15.0,75,0.00,,,0.00,meteohub,2013-04-23 03:23:00,
2013-04-22 23:28:00,42.3,34.5,30.57,SE,135,13.0,14.0,74,0.00,,,0.00,meteohub,2013-04-23 03:28:00,
2013-04-22 23:33:00,42.3,34.9,30.57,ESE,113,16.0,16.0,75,0.00,,,0.00,meteohub,2013-04-23 03:33:00,
2013-04-22 23:38:00,42.3,34.9,30.57,ESE,113,8.0,16.0,75,0.00,,,0.00,meteohub,2013-04-23 03:38:00,
2013-04-22 23:44:00,42.3,34.5,30.56,ESE,113,5.0,16.0,74,0.00,,,0.00,meteohub,2013-04-23 03:44:00,
2013-04-22 23:49:00,42.3,34.5,30.56,ESE,113,11.0,16.0,74,0.00,,,0.00,meteohub,2013-04-23 03:49:00,
2013-04-22 23:54:00,42.3,34.9,30.56,ENE,68,7.0,15.0,75,0.00,,,0.00,meteohub,2013-04-23 03:54:00,
2013-04-22 23:59:00,42.3,34.9,30.56,ENE,68,5.0,21.0,75,0.00,,,0.00,meteohub,2013-04-23 03:59:00,